Terminal Aerodrome Forecast
Issued by NWS

Home | Current Version | Previous Version | Text Only | Print | Product List | Glossary On
Versions: 1 2 3 4 5 6 7 8 9 10 11 12 13 14 15 16
526
FTPA31 PHFO 241144
TAFHOG
TAF
PHOG 241144Z 2412/2512 03009KT P6SM VCSH SCT020 BKN035 BKN045
      TEMPO 2412/2414 4SM SHRA BR BKN025 OVC045
     FM241600 VRB05KT P6SM VCSH FEW025 BKN045
     FM242000 04015G25KT P6SM FEW030 SCT050
     FM250600 06009KT P6SM FEW030 SCT050
      AMD LTD TO VIS AND WIND TIL 241600=

USA.gov is the U.S. government's official web portal to all federal, state and local government web resources and services.